Time;durP1;ratioP1;P1;durP2;ratioP2;P2;SDS_P1;SDS_P2;PMS_P1;PMS_P2;Temp;Humidity;BMP_temperature;BMP_pressure;BME280_temperature;BME280_humidity;BME280_pressure;Samples;Min_cycle;Max_cycle;Signal;HPM_P1;HPM_P2
2022/08/22 00:00:09;;;;;;;5.68;2.60;;;15.80;99.90;;;;;;6035133;23;20053;-83
2022/08/22 00:02:46;;;;;;;13.43;3.08;;;15.80;99.90;;;;;;6059086;23;20029;-83
2022/08/22 00:05:31;;;;;;;9.02;3.10;;;15.80;99.90;;;;;;6059494;23;20459;-83
2022/08/22 00:08:06;;;;;;;9.05;3.15;;;15.80;99.90;;;;;;6059130;23;20015;-83
2022/08/22 00:10:44;;;;;;;6.35;2.60;;;15.80;99.90;;;;;;6035856;23;20029;-83
2022/08/22 00:13:15;;;;;;;10.40;2.80;;;15.80;99.90;;;;;;6034336;23;20125;-83
2022/08/22 00:15:46;;;;;;;8.18;2.90;;;15.80;99.90;;;;;;6034607;23;20023;-83
2022/08/22 00:18:28;;;;;;;11.52;3.22;;;15.70;99.90;;;;;;6035780;23;20019;-84
2022/08/22 00:21:12;;;;;;;7.85;3.05;;;15.70;99.90;;;;;;6059089;23;20026;-83
2022/08/22 00:23:48;;;;;;;10.85;2.78;;;15.70;99.90;;;;;;6036116;23;20101;-83
2022/08/22 00:26:41;;;;;;;6.85;2.40;;;15.80;99.90;;;;;;6035598;23;20029;-83
2022/08/22 00:29:14;;;;;;;8.55;2.50;;;15.70;99.90;;;;;;6034165;23;20019;-83
2022/08/22 00:31:45;;;;;;;10.30;3.03;;;15.70;99.90;;;;;;6035346;23;20422;-83
2022/08/22 00:34:33;;;;;;;7.00;2.88;;;15.70;99.90;;;;;;6034021;23;20254;-83
2022/08/22 00:37:16;;;;;;;8.05;2.78;;;15.70;99.90;;;;;;6035378;23;20022;-83
2022/08/22 00:39:45;;;;;;;10.57;2.88;;;15.80;99.90;;;;;;6035663;23;20097;-83
2022/08/22 00:42:46;;;;;;;9.70;2.88;;;15.70;99.90;;;;;;6057968;23;20115;-83
2022/08/22 00:45:21;;;;;;;5.93;2.63;;;15.70;99.90;;;;;;6034972;23;20479;-82
2022/08/22 00:48:06;;;;;;;10.50;3.30;;;15.80;99.90;;;;;;6035541;23;20077;-83
2022/08/22 00:51:00;;;;;;;7.93;3.08;;;15.70;99.90;;;;;;6035568;23;20034;-83
2022/08/22 00:53:43;;;;;;;12.27;2.97;;;15.70;99.90;;;;;;6059106;23;20023;-83
2022/08/22 00:56:24;;;;;;;8.98;3.35;;;15.70;99.90;;;;;;6034708;23;20050;-83
2022/08/22 00:59:14;;;;;;;8.63;3.17;;;15.70;99.90;;;;;;6034988;23;20535;-83
2022/08/22 01:01:52;;;;;;;7.75;3.20;;;15.70;99.90;;;;;;6034673;23;20049;-84
2022/08/22 01:04:46;;;;;;;9.13;2.90;;;15.70;99.90;;;;;;6057750;23;20061;-83
2022/08/22 01:07:48;;;;;;;7.68;2.60;;;15.70;99.90;;;;;;6035294;23;20058;-83
2022/08/22 01:10:28;;;;;;;5.55;2.70;;;15.80;99.90;;;;;;6034321;23;20348;-83
2022/08/22 01:13:14;;;;;;;10.88;3.08;;;15.70;99.90;;;;;;6034702;23;20452;-84
2022/08/22 01:15:41;;;;;;;7.10;3.03;;;15.70;99.90;;;;;;6034692;23;20098;-84
2022/08/22 01:18:28;;;;;;;8.25;3.22;;;15.70;99.90;;;;;;6058287;23;20097;-83
2022/08/22 01:21:28;;;;;;;11.90;3.60;;;15.70;99.90;;;;;;6059700;23;20494;-83
2022/08/22 01:24:07;;;;;;;12.13;3.60;;;15.70;99.90;;;;;;6058668;23;20027;-83
2022/08/22 01:26:53;;;;;;;10.40;3.47;;;15.70;99.90;;;;;;6035453;23;20031;-83
2022/08/22 01:29:39;;;;;;;10.05;3.58;;;15.70;99.90;;;;;;6035238;23;20048;-84
2022/08/22 01:32:30;;;;;;;10.13;3.80;;;15.60;99.90;;;;;;6057944;23;20077;-83
2022/08/22 01:35:08;;;;;;;11.77;3.70;;;15.70;99.90;;;;;;6035382;23;20049;-83
2022/08/22 01:37:42;;;;;;;9.70;3.42;;;15.60;99.90;;;;;;6058328;23;20147;-83
2022/08/22 01:40:29;;;;;;;10.10;4.00;;;15.60;99.90;;;;;;6059184;23;20041;-82
2022/08/22 01:43:16;;;;;;;16.13;4.05;;;15.70;99.90;;;;;;6059008;23;20113;-84
2022/08/22 01:46:13;;;;;;;10.95;3.80;;;15.70;99.90;;;;;;6033957;23;20130;-83
2022/08/22 01:48:56;;;;;;;7.88;3.47;;;15.60;99.90;;;;;;6035221;23;20027;-83
2022/08/22 01:51:47;;;;;;;8.45;3.25;;;15.60;99.90;;;;;;6034217;23;20369;-83
2022/08/22 01:54:29;;;;;;;9.75;3.63;;;15.60;99.90;;;;;;6034933;23;20373;-83
2022/08/22 01:57:01;;;;;;;7.85;2.97;;;15.60;99.90;;;;;;6059050;23;20014;-83
2022/08/22 01:59:38;;;;;;;8.13;2.88;;;15.60;99.90;;;;;;6033987;23;20030;-83
2022/08/22 02:02:29;;;;;;;7.63;3.08;;;15.50;99.90;;;;;;6034432;23;20391;-83
2022/08/22 02:05:05;;;;;;;11.07;3.33;;;15.50;99.90;;;;;;6059694;23;20026;-83
2022/08/22 02:07:46;;;;;;;12.88;3.33;;;15.50;99.90;;;;;;6058299;23;20054;-83
2022/08/22 02:10:27;;;;;;;13.77;3.83;;;15.50;99.90;;;;;;6059303;23;20038;-83
2022/08/22 02:13:01;;;;;;;11.05;3.60;;;15.50;99.90;;;;;;6036019;23;20026;-83
2022/08/22 02:15:39;;;;;;;14.35;3.95;;;15.50;99.90;;;;;;6035945;23;20439;-83
2022/08/22 02:18:05;;;;;;;10.38;3.17;;;15.50;99.90;;;;;;6037351;23;20074;-83
2022/08/22 02:20:46;;;;;;;10.48;3.15;;;15.50;99.90;;;;;;6037115;23;20042;-83
2022/08/22 02:23:20;;;;;;;11.82;3.63;;;15.40;99.90;;;;;;6036611;23;20031;-83
2022/08/22 02:25:53;;;;;;;5.88;3.17;;;15.40;99.90;;;;;;6037132;23;20022;-83
2022/08/22 02:28:37;;;;;;;6.72;3.03;;;15.40;99.90;;;;;;6035589;23;20019;-83
2022/08/22 02:31:09;;;;;;;5.43;2.75;;;15.40;99.90;;;;;;6036682;23;20182;-83
2022/08/22 02:33:45;;;;;;;5.72;2.80;;;15.40;99.90;;;;;;6059103;23;20023;-83
2022/08/22 02:36:31;;;;;;;5.70;2.88;;;15.40;99.90;;;;;;6036250;23;20026;-83
2022/08/22 02:39:12;;;;;;;5.50;1.92;;;15.30;99.90;;;;;;6036491;23;20019;-83
2022/08/22 02:42:04;;;;;;;6.28;1.77;;;15.30;99.90;;;;;;6035093;23;20019;-83
2022/08/22 02:44:35;;;;;;;3.85;1.90;;;15.30;99.90;;;;;;6036559;23;20049;-83
2022/08/22 02:47:11;;;;;;;6.50;2.63;;;15.20;99.90;;;;;;6035848;23;20440;-83
2022/08/22 02:50:02;;;;;;;7.32;3.20;;;15.20;99.90;;;;;;6060010;23;20110;-83
2022/08/22 02:52:44;;;;;;;5.88;2.83;;;15.20;99.90;;;;;;6036043;23;20098;-83
2022/08/22 02:55:18;;;;;;;8.80;3.65;;;15.10;99.90;;;;;;6058850;23;20022;-83
2022/08/22 02:57:59;;;;;;;9.13;3.28;;;15.10;99.90;;;;;;6038739;23;20025;-83
2022/08/22 03:00:29;;;;;;;9.27;3.13;;;15.10;99.90;;;;;;6063957;23;20022;-83
2022/08/22 03:03:13;;;;;;;11.88;3.42;;;15.10;99.90;;;;;;6040313;23;20022;-83
2022/08/22 03:05:44;;;;;;;5.97;3.08;;;15.10;99.90;;;;;;6041049;23;20347;-83
2022/08/22 03:08:24;;;;;;;10.75;3.70;;;15.00;99.90;;;;;;6064672;23;20021;-83
2022/08/22 03:11:04;;;;;;;7.28;3.55;;;15.00;99.90;;;;;;6040317;23;20466;-83
2022/08/22 03:13:52;;;;;;;8.98;2.42;;;14.90;99.90;;;;;;6064061;23;20105;-83
2022/08/22 03:16:30;;;;;;;11.82;2.75;;;14.90;99.90;;;;;;6062948;23;20018;-82
2022/08/22 03:19:05;;;;;;;8.23;2.90;;;14.90;99.90;;;;;;6040750;23;20066;-83
2022/08/22 03:21:44;;;;;;;9.93;2.97;;;14.90;99.90;;;;;;6041051;23;20018;-83
2022/08/22 03:24:21;;;;;;;7.70;3.00;;;14.80;99.90;;;;;;6039705;23;20026;-83
2022/08/22 03:27:00;;;;;;;7.30;3.35;;;14.80;99.90;;;;;;6065089;23;20416;-83
2022/08/22 03:29:31;;;;;;;11.15;3.40;;;14.80;99.90;;;;;;6064615;23;20431;-83
2022/08/22 03:32:07;;;;;;;10.35;3.58;;;14.70;99.90;;;;;;6063367;23;20435;-83
2022/08/22 03:34:34;;;;;;;7.72;2.95;;;14.70;99.90;;;;;;6065031;23;20584;-83
2022/08/22 03:37:15;;;;;;;8.60;3.72;;;14.60;99.90;;;;;;6039560;23;20026;-83
2022/08/22 03:39:53;;;;;;;7.63;3.63;;;14.60;99.90;;;;;;6064449;23;20025;-83
2022/08/22 03:42:48;;;;;;;11.25;4.03;;;14.60;99.90;;;;;;6040132;23;20045;-83
2022/08/22 03:45:19;;;;;;;5.18;3.30;;;14.50;99.90;;;;;;6063082;23;20032;-82
2022/08/22 03:48:05;;;;;;;13.75;4.32;;;14.50;99.90;;;;;;6064400;23;20018;-83
2022/08/22 03:50:55;;;;;;;10.40;3.60;;;14.50;99.90;;;;;;6040093;23;20058;-83
2022/08/22 03:53:25;;;;;;;4.53;2.30;;;14.40;99.90;;;;;;6064196;23;20339;-83
2022/08/22 03:56:27;;;;;;;4.00;2.00;;;14.40;99.90;;;;;;6040771;23;20050;-83
2022/08/22 03:59:04;;;;;;;3.13;1.90;;;14.40;99.90;;;;;;6063387;23;20029;-82
2022/08/22 04:01:49;;;;;;;2.65;1.90;;;14.30;99.90;;;;;;6063822;23;20022;-82
2022/08/22 04:04:48;;;;;;;2.45;1.20;;;14.30;99.90;;;;;;6064246;23;20026;-83
2022/08/22 04:07:24;;;;;;;4.95;1.20;;;14.20;99.90;;;;;;6038986;23;20018;-82
2022/08/22 04:10:18;;;;;;;6.78;1.67;;;14.10;99.90;;;;;;6064838;23;20018;-82
2022/08/22 04:13:06;;;;;;;5.55;1.85;;;14.10;99.90;;;;;;6063259;23;20040;-83
2022/08/22 04:15:34;;;;;;;6.65;2.00;;;14.10;99.90;;;;;;6039947;23;20506;-83
2022/08/22 04:18:19;;;;;;;7.38;2.60;;;14.10;99.90;;;;;;6040785;23;20025;-84
2022/08/22 04:21:13;;;;;;;7.80;2.95;;;14.10;99.90;;;;;;6036708;23;20022;-83
2022/08/22 04:24:00;;;;;;;7.93;3.60;;;14.10;99.90;;;;;;6063680;23;20337;-83
2022/08/22 04:26:32;;;;;;;11.00;3.50;;;14.10;99.90;;;;;;6062643;23;20033;-82
2022/08/22 04:29:07;;;;;;;9.63;3.40;;;14.10;99.90;;;;;;6040072;23;20019;-83
2022/08/22 04:31:40;;;;;;;8.55;3.70;;;14.10;99.90;;;;;;6039674;23;20223;-83
2022/08/22 04:34:32;;;;;;;6.72;3.47;;;14.10;99.90;;;;;;6062959;23;20376;-84
2022/08/22 04:37:08;;;;;;;8.75;3.08;;;14.10;99.90;;;;;;6040608;23;20037;-83
2022/08/22 04:39:48;;;;;;;5.47;2.65;;;14.10;99.90;;;;;;6064007;23;20351;-84
2022/08/22 04:42:21;;;;;;;4.45;2.30;;;14.10;99.90;;;;;;6062276;23;20022;-83
2022/08/22 04:44:50;;;;;;;;;;;14.20;99.90;;;;;;6065119;23;20082;-83
2022/08/22 04:47:32;;;;;;;8.35;3.22;;;14.10;99.90;;;;;;6038596;23;19917;-83
2022/08/22 04:50:08;;;;;;;8.63;3.10;;;14.10;99.90;;;;;;6040848;23;20057;-83
2022/08/22 04:52:47;;;;;;;5.32;2.65;;;14.20;99.90;;;;;;6063424;23;20292;-83
2022/08/22 04:55:27;;;;;;;9.32;3.40;;;14.20;99.90;;;;;;6063335;23;20037;-83
2022/08/22 04:57:58;;;;;;;8.63;3.30;;;14.20;99.90;;;;;;6040134;23;20340;-83
2022/08/22 05:00:24;;;;;;;16.10;4.20;;;14.30;99.90;;;;;;6063095;23;20027;-83
2022/08/22 05:02:55;;;;;;;10.75;3.28;;;14.30;99.90;;;;;;6063415;23;20102;-83
2022/08/22 05:05:25;;;;;;;7.88;3.92;;;14.40;99.90;;;;;;6064095;23;20030;-83
2022/08/22 05:07:56;;;;;;;10.63;3.63;;;14.40;99.90;;;;;;6064668;23;20069;-83
2022/08/22 05:10:26;;;;;;;10.07;3.25;;;14.50;99.90;;;;;;6039090;23;20536;-83
2022/08/22 05:12:56;;;;;;;9.70;3.72;;;14.50;99.90;;;;;;6063701;23;20081;-83
2022/08/22 05:15:29;;;;;;;9.13;3.67;;;14.50;99.90;;;;;;6038709;23;20018;-83
2022/08/22 05:18:01;;;;;;;12.38;4.18;;;14.60;99.90;;;;;;6064089;23;20072;-83
2022/08/22 05:20:27;;;;;;;12.35;4.00;;;14.60;99.90;;;;;;6063682;23;20014;-84
2022/08/22 05:23:05;;;;;;;11.57;4.20;;;14.70;99.90;;;;;;6063755;23;20022;-83
2022/08/22 05:25:35;;;;;;;9.02;4.00;;;14.70;99.90;;;;;;6063731;23;20431;-83
2022/08/22 05:28:06;;;;;;;6.85;3.42;;;14.70;99.90;;;;;;6064033;23;20027;-83
2022/08/22 05:30:34;;;;;;;10.88;3.60;;;14.70;99.90;;;;;;6038841;23;20523;-84
2022/08/22 05:33:06;;;;;;;5.53;3.00;;;14.70;99.90;;;;;;6040734;23;20019;-83
2022/08/22 05:35:38;;;;;;;7.97;3.20;;;14.70;99.90;;;;;;6040341;23;20117;-83
2022/08/22 05:38:08;;;;;;;9.27;3.30;;;14.70;99.90;;;;;;6062733;23;20030;-83
2022/08/22 05:40:36;;;;;;;7.32;3.45;;;14.70;99.90;;;;;;6063915;23;20482;-83
2022/08/22 05:43:03;;;;;;;7.18;3.10;;;14.70;99.90;;;;;;6039811;23;20026;-83
2022/08/22 05:45:31;;;;;;;6.78;3.58;;;14.70;99.90;;;;;;6038974;23;20027;-83
2022/08/22 05:48:04;;;;;;;13.32;4.60;;;14.80;99.90;;;;;;6042108;23;20010;-83
2022/08/22 05:50:40;;;;;;;7.05;3.50;;;14.80;99.90;;;;;;6065125;23;20028;-83
2022/08/22 05:53:15;;;;;;;10.50;3.30;;;14.80;99.90;;;;;;6065626;23;20019;-83
2022/08/22 05:56:01;;;;;;;8.10;3.58;;;14.90;99.90;;;;;;6041411;23;20022;-83
2022/08/22 05:58:27;;;;;;;8.05;3.25;;;14.90;99.90;;;;;;6040028;23;20022;-82
2022/08/22 06:01:03;;;;;;;11.82;4.75;;;15.00;99.90;;;;;;6065749;23;20029;-83
2022/08/22 06:03:37;;;;;;;12.07;5.18;;;15.00;99.90;;;;;;6041474;23;20018;-82
2022/08/22 06:06:12;;;;;;;12.82;5.43;;;15.10;99.90;;;;;;6064044;23;20440;-82
2022/08/22 06:08:43;;;;;;;11.73;6.25;;;15.20;99.90;;;;;;6065524;23;20053;-82
2022/08/22 06:11:25;;;;;;;18.13;6.97;;;15.30;99.90;;;;;;6065509;23;20018;-82
2022/08/22 06:14:01;;;;;;;12.57;6.78;;;15.40;99.90;;;;;;6040662;23;20029;-83
2022/08/22 06:16:43;;;;;;;9.63;6.13;;;15.50;99.90;;;;;;6039961;23;20018;-83
2022/08/22 06:19:12;;;;;;;17.45;6.05;;;15.60;99.90;;;;;;6064031;23;20086;-83
2022/08/22 06:21:40;;;;;;;15.55;5.97;;;15.70;99.90;;;;;;6065420;23;20345;-83
2022/08/22 06:24:11;;;;;;;13.85;5.63;;;15.90;99.90;;;;;;6065217;23;20097;-83
2022/08/22 06:26:42;;;;;;;12.30;5.90;;;16.00;99.90;;;;;;6041010;23;20010;-82
2022/08/22 06:29:14;;;;;;;16.20;6.40;;;16.20;99.90;;;;;;6065196;23;20329;-83
2022/08/22 06:31:45;;;;;;;13.40;6.57;;;16.30;99.90;;;;;;6040835;23;20018;-83
2022/08/22 06:34:16;;;;;;;15.30;6.22;;;16.40;99.90;;;;;;6064550;23;20416;-83
2022/08/22 06:36:48;;;;;;;14.45;6.55;;;16.60;99.90;;;;;;6064615;23;20077;-83
2022/08/22 06:39:26;;;;;;;14.38;6.40;;;16.70;99.90;;;;;;6041162;23;20022;-83
2022/08/22 06:41:55;;;;;;;20.00;6.32;;;16.80;99.90;;;;;;6064200;23;20022;-82
2022/08/22 06:44:28;;;;;;;22.98;6.80;;;16.90;99.90;;;;;;6064387;23;20474;-83
2022/08/22 06:46:58;;;;;;;15.85;6.47;;;17.00;99.90;;;;;;6063770;23;20026;-83
2022/08/22 06:49:26;;;;;;;19.30;6.57;;;17.10;99.90;;;;;;6065006;23;20037;-83
2022/08/22 06:51:58;;;;;;;16.65;6.13;;;17.20;99.90;;;;;;6064985;23;20030;-83
2022/08/22 06:54:29;;;;;;;16.38;5.90;;;17.30;99.90;;;;;;6089636;23;20023;-83
2022/08/22 06:56:56;;;;;;;19.65;6.47;;;17.50;99.90;;;;;;6063912;23;20171;-83
2022/08/22 06:59:25;;;;;;;14.55;5.88;;;17.50;99.90;;;;;;6040798;23;20093;-83
2022/08/22 07:02:02;;;;;;;19.67;6.50;;;17.60;99.90;;;;;;6039498;23;20077;-83
2022/08/22 07:04:28;;;;;;;17.20;6.40;;;17.70;99.90;;;;;;6041054;23;20309;-83
2022/08/22 07:06:57;;;;;;;21.13;6.20;;;17.80;99.90;;;;;;6065428;23;20057;-83
2022/08/22 07:09:25;;;;;;;17.02;5.43;;;17.90;99.90;;;;;;6040152;23;20063;-83
2022/08/22 07:11:53;;;;;;;14.60;5.13;;;18.00;99.90;;;;;;6065242;23;20447;-82
2022/08/22 07:14:42;;;;;;;15.82;5.15;;;18.10;99.90;;;;;;6064607;23;20316;-83
2022/08/22 07:17:14;;;;;;;16.80;4.70;;;18.20;99.90;;;;;;6038974;23;20018;-83
2022/08/22 07:19:47;;;;;;;18.05;5.50;;;18.30;99.90;;;;;;6041426;23;20092;-83
2022/08/22 07:22:20;;;;;;;16.05;4.20;;;18.30;99.90;;;;;;6064467;23;20029;-83
2022/08/22 07:24:51;;;;;;;18.27;4.82;;;18.40;99.90;;;;;;6064907;23;20082;-83
2022/08/22 07:27:21;;;;;;;17.67;4.60;;;18.50;99.90;;;;;;6064633;23;20023;-83
2022/08/22 07:29:58;;;;;;;17.27;4.47;;;18.60;99.90;;;;;;6063924;23;20156;-83
2022/08/22 07:32:43;;;;;;;13.52;3.80;;;18.60;99.90;;;;;;6039426;23;20022;-83
2022/08/22 07:35:15;;;;;;;12.50;4.22;;;18.60;99.90;;;;;;6064268;23;20022;-83
2022/08/22 07:37:55;;;;;;;18.13;4.37;;;18.70;99.90;;;;;;6063686;23;20093;-83
2022/08/22 07:40:26;;;;;;;17.42;4.85;;;18.70;99.90;;;;;;6064327;23;20398;-83
2022/08/22 07:43:01;;;;;;;12.18;4.15;;;18.70;99.90;;;;;;6040119;23;20053;-83
2022/08/22 07:45:33;;;;;;;12.43;4.30;;;18.80;99.90;;;;;;6063207;23;20118;-83
2022/08/22 07:48:08;;;;;;;16.55;4.60;;;18.80;99.90;;;;;;6065046;23;20058;-82
2022/08/22 07:50:40;;;;;;;15.98;5.32;;;18.90;99.90;;;;;;6039870;23;20034;-83
2022/08/22 07:53:40;;;;;;;21.88;5.25;;;18.90;99.90;;;;;;6040344;23;20019;-83
2022/08/22 07:56:11;;;;;;;18.17;4.47;;;18.90;99.90;;;;;;6064607;23;20053;-84
2022/08/22 07:58:40;;;;;;;18.65;4.70;;;19.00;99.90;;;;;;6062698;23;20018;-83
2022/08/22 08:01:13;;;;;;;17.65;4.50;;;19.10;99.90;;;;;;6064031;23;20027;-82
2022/08/22 08:03:41;;;;;;;20.17;4.72;;;19.20;99.90;;;;;;6040635;23;20456;-83
2022/08/22 08:06:08;;;;;;;14.90;4.10;;;19.30;99.90;;;;;;6063217;23;20057;-83
2022/08/22 08:08:40;;;;;;;18.15;4.15;;;19.40;99.90;;;;;;6040054;23;20340;-82
2022/08/22 08:11:09;;;;;;;18.42;3.78;;;19.50;99.90;;;;;;6039514;23;20022;-83
2022/08/22 08:13:40;;;;;;;17.40;4.00;;;19.60;99.90;;;;;;6040625;23;20044;-87
2022/08/22 08:16:20;;;;;;;12.90;3.65;;;19.70;99.90;;;;;;6041483;23;20435;-89
2022/08/22 08:18:48;;;;;;;13.93;3.92;;;19.80;99.90;;;;;;6039791;23;20030;-86
2022/08/22 08:21:28;;;;;;;15.98;4.00;;;19.90;99.90;;;;;;6040978;23;20034;-85
2022/08/22 08:23:55;;;;;;;22.20;4.28;;;20.00;99.90;;;;;;6041442;23;20033;-86
2022/08/22 08:26:28;;;;;;;12.88;3.53;;;20.00;99.90;;;;;;6062547;23;20029;-85
2022/08/22 08:28:57;;;;;;;17.85;3.88;;;20.00;99.90;;;;;;6064412;23;20049;-86
2022/08/22 08:31:37;;;;;;;18.00;4.00;;;20.00;99.90;;;;;;6039132;23;20062;-86
2022/08/22 08:34:12;;;;;;;16.17;3.45;;;20.00;99.90;;;;;;6063186;23;20435;-86
2022/08/22 08:36:51;;;;;;;18.70;3.45;;;20.00;99.90;;;;;;6064208;23;20080;-86
2022/08/22 08:39:21;;;;;;;15.57;3.45;;;20.10;99.90;;;;;;6063361;23;20470;-85
2022/08/22 08:42:21;;;;;;;15.32;3.17;;;20.00;99.90;;;;;;6040696;23;20071;-86
2022/08/22 08:44:54;;;;;;;15.70;2.65;;;20.00;99.90;;;;;;6041044;23;20463;-86
2022/08/22 08:47:36;;;;;;;13.23;2.80;;;20.10;99.90;;;;;;6063307;23;20054;-85
2022/08/22 08:50:24;;;;;;;19.70;2.80;;;20.00;99.90;;;;;;6041254;23;20351;-86
2022/08/22 08:53:08;;;;;;;14.38;2.90;;;20.20;99.90;;;;;;6065256;23;20105;-86
2022/08/22 08:55:58;;;;;;;16.52;3.30;;;20.10;99.90;;;;;;6040382;23;20030;-85
2022/08/22 08:58:47;;;;;;;16.27;3.65;;;20.10;99.90;;;;;;6037289;23;20030;-85
2022/08/22 09:01:32;;;;;;;13.73;3.40;;;20.10;99.90;;;;;;6060050;23;20105;-85
2022/08/22 09:04:23;;;;;;;12.13;3.08;;;20.20;99.90;;;;;;6061328;23;20033;-85
2022/08/22 09:06:58;;;;;;;10.35;2.63;;;20.30;99.90;;;;;;6061389;23;20424;-85
2022/08/22 09:09:41;;;;;;;18.55;3.40;;;20.30;99.90;;;;;;6060377;23;20058;-86
2022/08/22 09:12:22;;;;;;;12.30;2.83;;;20.40;99.90;;;;;;6036944;23;20338;-86
2022/08/22 09:15:20;;;;;;;20.08;3.30;;;20.50;99.90;;;;;;6038252;23;20038;-86
2022/08/22 09:17:50;;;;;;;10.43;2.70;;;20.50;99.90;;;;;;6037586;23;20026;-86
2022/08/22 09:20:29;;;;;;;13.02;2.97;;;20.60;99.90;;;;;;6038612;23;20166;-86
2022/08/22 09:23:11;;;;;;;13.52;2.75;;;20.60;99.90;;;;;;6039003;23;20037;-86
2022/08/22 09:25:47;;;;;;;11.93;2.72;;;20.60;99.90;;;;;;6040480;23;20018;-86
2022/08/22 09:28:17;;;;;;;12.00;2.30;;;20.80;99.90;;;;;;6036722;23;20018;-87
2022/08/22 09:30:50;;;;;;;14.82;3.30;;;20.90;99.90;;;;;;6039751;23;20455;-86
2022/08/22 09:33:20;;;;;;;15.63;3.70;;;20.90;99.90;;;;;;6063457;23;20462;-86
2022/08/22 09:36:14;;;;;;;13.68;2.90;;;21.00;99.90;;;;;;6062207;23;20109;-85
2022/08/22 09:38:55;;;;;;;15.82;3.30;;;21.10;99.90;;;;;;6064034;23;20113;-87
2022/08/22 09:41:37;;;;;;;15.45;2.80;;;21.10;99.90;;;;;;6039925;23;20417;-86
2022/08/22 09:44:34;;;;;;;15.18;2.75;;;21.20;99.90;;;;;;6039023;23;20339;-86
2022/08/22 09:47:16;;;;;;;19.15;2.95;;;21.20;99.90;;;;;;6039232;23;20158;-87
2022/08/22 09:50:07;;;;;;;15.55;2.90;;;21.20;99.90;;;;;;6040228;23;20562;-87
2022/08/22 09:52:48;;;;;;;16.20;2.85;;;21.30;99.90;;;;;;6039272;23;20039;-88
2022/08/22 09:55:26;;;;;;;14.57;3.20;;;21.40;99.90;;;;;;6040504;23;20029;-88
2022/08/22 09:58:18;;;;;;;12.73;2.88;;;21.50;99.90;;;;;;6063161;23;20033;-87
2022/08/22 10:00:55;;;;;;;12.57;2.53;;;21.50;99.90;;;;;;6043462;23;20031;-88
2022/08/22 10:03:44;;;;;;;13.05;2.85;;;21.70;99.90;;;;;;6042918;23;20545;-86
2022/08/22 10:06:20;;;;;;;13.48;2.42;;;21.90;99.90;;;;;;6043682;23;20033;-87
2022/08/22 10:09:04;;;;;;;15.70;2.72;;;22.00;99.90;;;;;;6043775;23;20018;-86
2022/08/22 10:11:54;;;;;;;14.52;2.67;;;22.20;99.90;;;;;;6044028;23;20022;-85
2022/08/22 10:14:25;;;;;;;17.33;2.78;;;22.20;99.90;;;;;;6064987;23;20022;-84
2022/08/22 10:17:01;;;;;;;10.98;2.38;;;22.30;99.90;;;;;;6041860;23;20015;-85
2022/08/22 10:19:35;;;;;;;12.02;2.75;;;22.30;99.90;;;;;;6040642;23;20022;-85
2022/08/22 10:22:36;;;;;;;14.27;2.50;;;22.20;99.90;;;;;;6066031;23;20328;-85
2022/08/22 10:25:18;;;;;;;10.27;2.22;;;22.30;99.90;;;;;;6041756;23;20069;-84
2022/08/22 10:28:07;;;;;;;17.63;3.25;;;22.40;99.90;;;;;;6065520;23;20041;-84
2022/08/22 10:30:42;;;;;;;13.05;2.05;;;22.30;99.90;;;;;;6042084;23;20548;-85
2022/08/22 10:33:25;;;;;;;10.80;2.60;;;22.40;99.90;;;;;;6041110;23;20015;-85
2022/08/22 10:36:11;;;;;;;11.13;2.47;;;22.60;99.90;;;;;;6066522;23;20058;-85
2022/08/22 10:38:44;;;;;;;9.95;2.47;;;22.70;99.90;;;;;;6065744;23;20018;-86
2022/08/22 10:41:57;;;;;;;13.60;3.20;;;22.70;99.90;;;;;;6042478;23;20033;-85
2022/08/22 10:44:35;;;;;;;15.05;2.58;;;22.60;99.90;;;;;;6065388;23;20026;-85
2022/08/22 10:47:22;;;;;;;11.95;2.38;;;22.60;99.90;;;;;;6064230;23;20022;-85
2022/08/22 10:49:58;;;;;;;16.17;2.42;;;22.60;99.90;;;;;;6066309;23;20498;-84
2022/08/22 10:52:38;;;;;;;9.38;2.13;;;22.60;99.90;;;;;;6064519;23;20058;-85
2022/08/22 10:55:24;;;;;;;11.80;2.88;;;22.60;99.90;;;;;;6040971;23;20411;-85
2022/08/22 10:58:09;;;;;;;16.17;2.75;;;22.70;99.90;;;;;;6064591;23;20462;-85
2022/08/22 11:00:53;;;;;;;13.70;2.65;;;22.70;99.90;;;;;;6040318;23;20066;-86
2022/08/22 11:03:37;;;;;;;9.93;1.73;;;22.90;99.90;;;;;;6041773;23;20025;-85
2022/08/22 11:06:13;;;;;;;11.05;2.55;;;22.90;99.90;;;;;;6065752;23;20096;-84
2022/08/22 11:08:58;;;;;;;9.85;2.25;;;23.10;99.90;;;;;;6040920;23;20018;-85
2022/08/22 11:11:55;;;;;;;18.17;2.95;;;23.30;99.90;;;;;;6064872;23;20018;-86
2022/08/22 11:15:07;;;;;;;14.48;2.47;;;23.20;99.90;;;;;;6040478;23;20029;-86
2022/08/22 11:17:59;;;;;;;13.60;2.80;;;23.30;99.90;;;;;;6041057;23;20092;-86
2022/08/22 11:20:47;;;;;;;12.85;2.00;;;23.20;99.90;;;;;;6065269;23;20386;-85
2022/08/22 11:23:13;;;;;;;12.77;2.50;;;23.20;99.90;;;;;;6064033;23;20018;-85
2022/08/22 11:26:07;;;;;;;9.90;2.50;;;23.20;99.90;;;;;;6064887;23;20057;-85
2022/08/22 11:29:01;;;;;;;12.88;2.17;;;23.20;99.90;;;;;;6040850;23;20337;-86
2022/08/22 11:31:48;;;;;;;8.27;1.90;;;23.20;99.90;;;;;;6040420;23;20094;-85
2022/08/22 11:34:23;;;;;;;12.48;2.47;;;23.20;99.90;;;;;;6040800;23;20034;-85
2022/08/22 11:37:05;;;;;;;8.90;1.83;;;23.10;99.90;;;;;;6064646;23;20077;-85
2022/08/22 11:39:51;;;;;;;13.23;2.50;;;23.20;99.90;;;;;;6041526;23;20015;-84
2022/08/22 11:42:38;;;;;;;10.45;2.60;;;23.20;99.90;;;;;;6038931;23;20022;-84
2022/08/22 11:45:06;;;;;;;13.85;2.63;;;23.20;99.90;;;;;;6040181;23;20033;-84
2022/08/22 11:47:55;;;;;;;7.68;2.05;;;23.30;99.90;;;;;;6064988;23;20018;-88
2022/08/22 11:50:49;;;;;;;10.82;2.45;;;23.50;99.90;;;;;;6039779;23;20452;-86
2022/08/22 11:53:39;;;;;;;9.93;2.33;;;23.70;99.90;;;;;;6040730;23;20026;-86
2022/08/22 11:56:28;;;;;;;10.90;2.42;;;23.80;99.90;;;;;;6065645;23;20034;-87
2022/08/22 11:59:19;;;;;;;12.93;2.22;;;24.00;99.90;;;;;;6041463;23;20049;-88
2022/08/22 12:01:58;;;;;;;16.75;2.20;;;24.30;99.90;;;;;;6041279;23;20106;-88
2022/08/22 12:04:59;;;;;;;14.00;2.10;;;24.50;99.90;;;;;;6038421;23;20220;-89
2022/08/22 12:07:31;;;;;;;13.38;2.38;;;24.60;99.90;;;;;;6040146;23;20033;-88
2022/08/22 12:10:03;;;;;;;10.35;2.28;;;24.70;99.90;;;;;;6041683;23;20026;-88
2022/08/22 12:13:19;;;;;;;11.30;2.30;;;24.60;99.90;;;;;;6039245;23;20022;-88
2022/08/22 12:16:23;;;;;;;9.70;1.67;;;24.50;99.90;;;;;;6019181;23;20058;-89
2022/08/22 12:19:40;;;;;;;7.60;2.03;;;24.50;99.90;;;;;;6038936;23;20015;-89
2022/08/22 12:22:54;;;;;;;13.23;1.65;;;24.50;99.90;;;;;;6040429;23;20390;-90
2022/08/22 12:25:48;;;;;;;6.47;1.58;;;24.60;99.90;;;;;;6039623;23;20019;-88
2022/08/22 12:28:37;;;;;;;;;;;;;;;;;;;;;
2022/08/22 12:31:45;;;;;;;9.90;1.83;;;24.60;99.90;;;;;;6061441;23;20057;-89
2022/08/22 12:35:00;;;;;;;6.95;1.40;;;24.60;99.90;;;;;;6039756;23;20219;-89
2022/08/22 12:37:52;;;;;;;9.90;1.55;;;24.40;99.90;;;;;;5990557;23;20037;-90
2022/08/22 12:40:39;;;;;;;9.73;1.40;;;24.30;99.90;;;;;;6040497;23;20080;-90
2022/08/22 12:43:35;;;;;;;7.68;1.65;;;24.10;99.90;;;;;;6039438;23;20089;-89
2022/08/22 12:46:19;;;;;;;;;;;24.00;99.90;;;;;;6042233;23;20436;-89
2022/08/22 12:49:04;;;;;;;8.73;2.00;;;23.70;99.90;;;;;;6040124;23;19925;-89
2022/08/22 12:51:56;;;;;;;7.57;1.75;;;23.60;99.90;;;;;;6039510;23;20392;-89
2022/08/22 12:58:40;;;;;;;5.97;1.50;;;23.60;99.90;;;;;;6042891;23;20033;-89
2022/08/22 13:01:25;;;;;;;10.38;1.60;;;23.70;99.90;;;;;;6038103;23;20033;-89
2022/08/22 13:04:11;;;;;;;10.75;1.35;;;23.70;99.90;;;;;;6039166;23;20397;-89
2022/08/22 13:07:11;;;;;;;5.95;1.48;;;23.90;99.90;;;;;;6038328;23;20022;-91
2022/08/22 13:09:57;;;;;;;17.20;2.10;;;24.10;99.90;;;;;;6018126;23;20022;-90
2022/08/22 13:12:38;;;;;;;13.80;1.83;;;24.20;99.90;;;;;;6039547;23;20057;-90
2022/08/22 13:15:21;;;;;;;10.60;1.92;;;24.30;99.90;;;;;;6038598;23;20023;-90
2022/08/22 13:17:50;;;;;;;9.88;1.65;;;24.30;99.90;;;;;;6039796;23;20026;-90
2022/08/22 13:20:25;;;;;;;8.00;1.80;;;24.30;99.90;;;;;;6040058;23;20443;-91
2022/08/22 13:22:59;;;;;;;7.13;1.67;;;24.30;99.90;;;;;;6039526;23;20022;-89
2022/08/22 13:26:05;;;;;;;10.55;1.80;;;24.30;99.90;;;;;;6038496;23;20033;-90
2022/08/22 13:28:48;;;;;;;7.60;1.50;;;24.30;99.90;;;;;;6038813;23;20029;-90
2022/08/22 13:31:35;;;;;;;11.70;1.75;;;24.30;99.90;;;;;;6036617;23;20478;-89
2022/08/22 13:34:06;;;;;;;7.88;1.52;;;24.40;99.90;;;;;;6064283;23;20105;-90
2022/08/22 13:36:48;;;;;;;9.32;1.92;;;24.50;99.90;;;;;;6039505;23;20022;-90
2022/08/22 13:39:14;;;;;;;8.07;1.55;;;24.60;99.90;;;;;;6039923;23;20018;-89
2022/08/22 13:41:59;;;;;;;7.50;1.20;;;24.60;99.90;;;;;;6041206;23;20470;-88
2022/08/22 13:44:30;;;;;;;6.97;1.50;;;24.70;99.90;;;;;;6041990;23;20030;-90
2022/08/22 13:47:31;;;;;;;7.93;1.45;;;24.70;99.90;;;;;;6042362;23;20029;-92
2022/08/22 13:50:25;;;;;;;5.35;1.48;;;24.70;99.90;;;;;;6064969;23;20057;-91
2022/08/22 13:53:01;;;;;;;7.40;1.52;;;24.80;99.90;;;;;;6042433;23;20113;-89